Time;durP1;ratioP1;P1;durP2;ratioP2;P2;SDS_P1;SDS_P2;PMS_P1;PMS_P2;Temp;Humidity;BMP_temperature;BMP_pressure;BME280_temperature;BME280_humidity;BME280_pressure;Samples;Min_cycle;Max_cycle;Signal;HPM_P1;HPM_P2
2023/04/23 00:00:27;;;;;;;;;;;;;;;16.84;60.45;100477.81;4942390;29;19915;-81
2023/04/23 00:03:20;;;;;;;;;;;;;;;16.90;60.10;100472.81;4934396;29;20363;-82
2023/04/23 00:06:12;;;;;;;;;;;;;;;16.81;60.26;100466.75;4935236;29;20294;-81
2023/04/23 00:09:04;;;;;;;;;;;;;;;16.91;59.89;100477.94;4942780;29;19914;-81
2023/04/23 00:11:56;;;;;;;;;;;;;;;16.76;60.47;100470.56;4947865;29;19914;-81
2023/04/23 00:14:48;;;;;;;;;;;;;;;16.77;60.54;100461.19;4944712;29;19919;-80
2023/04/23 00:17:40;;;;;;;;;;;;;;;16.84;59.77;100464.06;4946957;29;19918;-81
2023/04/23 00:20:33;;;;;;;;;;;;;;;16.82;60.22;100469.13;4944774;29;20095;-81
2023/04/23 00:23:25;;;;;;;;;;;;;;;16.76;60.12;100462.31;4930683;29;19915;-81
2023/04/23 00:26:17;;;;;;;;;;;;;;;16.65;60.80;100467.63;4941635;29;20391;-80
2023/04/23 00:29:06;;;;;;;;;;;;;;;16.76;60.27;100459.59;4943900;29;19915;-80
2023/04/23 00:31:56;;;;;;;;;;;;;;;16.68;60.40;100458.66;4948429;29;19915;-82
2023/04/23 00:34:48;;;;;;;;;;;;;;;16.69;60.38;100459.47;4944600;29;19919;-82
2023/04/23 00:37:37;;;;;;;;;;;;;;;16.72;60.08;100449.69;4944357;29;19915;-81
2023/04/23 00:40:29;;;;;;;;;;;;;;;16.70;59.88;100454.75;4943557;29;19915;-81
2023/04/23 00:43:21;;;;;;;;;;;;;;;16.69;60.19;100456.72;4946956;29;19915;-82
2023/04/23 00:46:13;;;;;;;;;;;;;;;16.56;60.71;100452.47;4944914;29;19919;-82
2023/04/23 00:49:05;;;;;;;;;;;;;;;16.45;60.95;100452.28;4943027;29;19910;-80
2023/04/23 00:51:52;;;;;;;;;;;;;;;16.62;60.76;100456.56;4940341;29;19914;-82
2023/04/23 00:54:44;;;;;;;;;;;;;;;16.67;60.82;100451.56;4947489;29;19919;-82
2023/04/23 00:57:37;;;;;;;;;;;;;;;16.72;60.43;100458.72;4944916;29;20294;-81
2023/04/23 01:00:29;;;;;;;;;;;;;;;16.70;60.34;100449.28;4940388;29;19914;-82
2023/04/23 01:03:21;;;;;;;;;;;;;;;16.70;60.51;100449.28;4946483;29;19914;-82
2023/04/23 01:06:13;;;;;;;;;;;;;;;16.71;60.34;100440.66;4944389;29;19918;-82
2023/04/23 01:09:05;;;;;;;;;;;;;;;16.61;60.20;100441.25;4941821;29;20306;-82
2023/04/23 01:11:58;;;;;;;;;;;;;;;16.52;60.67;100438.69;4944078;29;19915;-82
2023/04/23 01:14:49;;;;;;;;;;;;;;;16.44;60.95;100441.66;4939024;29;19918;-82
2023/04/23 01:17:41;;;;;;;;;;;;;;;16.40;61.10;100446.28;4943061;29;19915;-82
2023/04/23 01:20:33;;;;;;;;;;;;;;;16.40;60.94;100443.56;4941214;29;19922;-82
2023/04/23 01:23:25;;;;;;;;;;;;;;;16.36;60.99;100443.44;4935512;29;19914;-82
2023/04/23 01:26:17;;;;;;;;;;;;;;;16.31;61.04;100440.19;4942813;29;19915;-82
2023/04/23 01:29:08;;;;;;;;;;;;;;;16.26;61.22;100431.09;4942964;29;19914;-82
2023/04/23 01:32:01;;;;;;;;;;;;;;;16.30;61.26;100438.63;4942002;29;19914;-82
2023/04/23 01:34:53;;;;;;;;;;;;;;;16.26;61.68;100436.59;4945434;29;19918;-82
2023/04/23 01:37:43;;;;;;;;;;;;;;;16.14;61.47;100439.50;4942856;29;19915;-82
2023/04/23 01:40:35;;;;;;;;;;;;;;;16.13;61.92;100445.31;4941889;29;20382;-82
2023/04/23 01:43:28;;;;;;;;;;;;;;;16.17;61.54;100444.25;4944038;29;19915;-82
2023/04/23 01:46:21;;;;;;;;;;;;;;;16.13;61.67;100446.13;4942176;29;19918;-81
2023/04/23 01:49:10;;;;;;;;;;;;;;;16.06;62.10;100448.69;4942944;29;19915;-80
2023/04/23 01:52:02;;;;;;;;;;;;;;;16.08;61.93;100446.41;5000295;23;19922;-80
2023/04/23 01:54:52;;;;;;;;;;;;;;;16.05;62.06;100438.88;4935237;29;19919;-81
2023/04/23 01:57:44;;;;;;;;;;;;;;;16.13;61.73;100446.13;4962201;28;19918;-80
2023/04/23 02:00:36;;;;;;;;;;;;;;;16.01;62.60;100435.25;4941902;29;19914;-80
2023/04/23 02:03:27;;;;;;;;;;;;;;;16.06;62.05;100443.22;4927403;29;19915;-80
2023/04/23 02:06:18;;;;;;;;;;;;;;;16.07;62.13;100444.81;4920556;29;19952;-81
2023/04/23 02:09:11;;;;;;;;;;;;;;;16.05;62.32;100447.09;4917855;29;19915;-81
2023/04/23 02:12:03;;;;;;;;;;;;;;;16.03;62.19;100437.66;4927119;29;19915;-80
2023/04/23 02:14:52;;;;;;;;;;;;;;;15.99;62.31;100448.56;4917631;29;19919;-80
2023/04/23 02:17:44;;;;;;;;;;;;;;;16.02;62.40;100442.34;4917853;29;20383;-80
2023/04/23 02:20:37;;;;;;;;;;;;;;;16.03;62.50;100441.19;4921583;29;20382;-81
2023/04/23 02:23:29;;;;;;;;;;;;;;;15.85;63.56;100437.25;4921383;29;19915;-80
2023/04/23 02:26:21;;;;;;;;;;;;;;;15.90;63.01;100439.72;4917040;29;19915;-81
2023/04/23 02:29:13;;;;;;;;;;;;;;;15.85;62.98;100431.75;4920521;29;19915;-81
2023/04/23 02:32:05;;;;;;;;;;;;;;;15.79;63.26;100430.47;4920180;29;19915;-80
2023/04/23 02:34:57;;;;;;;;;;;;;;;15.74;63.45;100428.00;4919151;29;19923;-81
2023/04/23 02:37:50;;;;;;;;;;;;;;;15.83;63.24;100431.34;4900796;29;19919;-82
2023/04/23 02:40:42;;;;;;;;;;;;;;;15.86;63.34;100433.34;4898841;29;19915;-81
2023/04/23 02:43:34;;;;;;;;;;;;;;;15.92;63.29;100431.13;4927480;29;20298;-81
2023/04/23 02:46:27;;;;;;;;;;;;;;;15.74;64.11;100430.75;4924553;29;19970;-82
2023/04/23 02:49:19;;;;;;;;;;;;;;;15.80;63.52;100426.56;4916552;29;19915;-82
2023/04/23 02:52:11;;;;;;;;;;;;;;;15.74;63.90;100430.75;4917901;29;20374;-80
2023/04/23 02:55:06;;;;;;;;;;;;;;;15.72;63.70;100427.56;4935993;28;19927;-80
2023/04/23 02:57:57;;;;;;;;;;;;;;;15.73;63.54;100424.47;4920815;29;20378;-81
2023/04/23 03:00:49;;;;;;;;;;;;;;;15.62;64.17;100425.34;4918972;29;20379;-81
2023/04/23 03:03:41;;;;;;;;;;;;;;;15.59;64.76;100426.88;4918401;29;19915;-81
2023/04/23 03:06:33;;;;;;;;;;;;;;;15.68;64.41;100422.00;4919662;29;19915;-81
2023/04/23 03:09:25;;;;;;;;;;;;;;;15.63;63.67;100418.72;4918045;29;19915;-81
2023/04/23 03:12:17;;;;;;;;;;;;;;;15.41;65.00;100420.94;4916549;29;19915;-81
2023/04/23 03:15:08;;;;;;;;;;;;;;;15.50;64.45;100426.22;4921598;29;19926;-79
2023/04/23 03:18:00;;;;;;;;;;;;;;;15.44;64.30;100415.91;4917050;29;20479;-79
2023/04/23 03:20:53;;;;;;;;;;;;;;;15.49;64.46;100413.66;4920371;29;19915;-79
2023/04/23 03:23:44;;;;;;;;;;;;;;;15.42;64.63;100413.50;4918364;29;19923;-79
2023/04/23 03:26:36;;;;;;;;;;;;;;;15.36;64.98;100412.97;4926323;29;19915;-83
2023/04/23 03:29:28;;;;;;;;;;;;;;;15.23;65.57;100416.97;4906487;29;19915;-83
2023/04/23 03:32:20;;;;;;;;;;;;;;;15.24;64.87;100423.22;4918933;29;19919;-83
2023/04/23 03:35:12;;;;;;;;;;;;;;;15.24;64.71;100418.53;4936354;28;19919;-83
2023/04/23 03:38:06;;;;;;;;;;;;;;;15.26;65.00;100416.25;4923527;29;19915;-83
2023/04/23 03:40:58;;;;;;;;;;;;;;;15.26;64.58;100415.44;4920917;29;19915;-81
2023/04/23 03:43:49;;;;;;;;;;;;;;;15.25;64.68;100422.88;4920682;29;19918;-80
2023/04/23 03:46:51;;;;;;;;;;;;;;;15.29;65.19;100425.69;4916770;29;19919;-80
2023/04/23 03:49:42;;;;;;;;;;;;;;;15.22;65.29;100417.31;4896791;29;19916;-80
2023/04/23 03:52:34;;;;;;;;;;;;;;;15.29;65.48;100429.22;4911003;29;19915;-81
2023/04/23 03:55:25;;;;;;;;;;;;;;;15.31;65.60;100418.72;4926090;29;19919;-81
2023/04/23 03:58:17;;;;;;;;;;;;;;;15.31;65.58;100420.66;4920908;29;19915;-80
2023/04/23 04:01:09;;;;;;;;;;;;;;;15.36;65.47;100421.19;4918158;29;20383;-79
2023/04/23 04:04:01;;;;;;;;;;;;;;;15.33;65.37;100426.59;4916476;29;20318;-80
2023/04/23 04:06:53;;;;;;;;;;;;;;;15.33;65.27;100421.13;4922645;29;19915;-81
2023/04/23 04:09:47;;;;;;;;;;;;;;;15.37;65.22;100428.28;4912770;29;19915;-80
2023/04/23 04:12:39;;;;;;;;;;;;;;;15.26;65.09;100420.94;4915908;29;19915;-80
2023/04/23 04:15:31;;;;;;;;;;;;;;;15.30;64.71;100422.59;4908146;29;19919;-80
2023/04/23 04:18:23;;;;;;;;;;;;;;;15.53;64.06;100430.25;4924049;29;20391;-80
2023/04/23 04:21:15;;;;;;;;;;;;;;;15.57;64.32;100431.13;4920795;29;19915;-80
2023/04/23 04:24:07;;;;;;;;;;;;;;;15.54;64.01;100432.63;4916000;29;19915;-80
2023/04/23 04:26:57;;;;;;;;;;;;;;;15.53;63.82;100435.72;4923187;29;19915;-80
2023/04/23 04:29:49;;;;;;;;;;;;;;;15.39;64.41;100431.44;4911380;29;19934;-80
2023/04/23 04:32:40;;;;;;;;;;;;;;;15.37;64.45;100428.28;4929516;29;19927;-80
2023/04/23 04:35:32;;;;;;;;;;;;;;;15.31;64.50;100429.69;4916211;29;20402;-79
2023/04/23 04:38:25;;;;;;;;;;;;;;;15.22;65.19;100423.59;4911533;29;19915;-82
2023/04/23 04:41:17;;;;;;;;;;;;;;;15.16;65.46;100430.47;4919481;29;19923;-81
2023/04/23 04:44:12;;;;;;;;;;;;;;;15.18;65.55;100430.94;4933968;29;19915;-81
2023/04/23 04:47:03;;;;;;;;;;;;;;;15.17;65.20;100423.84;4927335;29;19929;-81
2023/04/23 04:49:56;;;;;;;;;;;;;;;15.14;65.67;100437.44;4938220;29;19915;-81
2023/04/23 04:52:47;;;;;;;;;;;;;;;15.11;65.80;100438.16;4927395;29;20413;-82
2023/04/23 04:55:39;;;;;;;;;;;;;;;15.13;65.76;100439.41;4921495;29;19918;-81
2023/04/23 04:58:31;;;;;;;;;;;;;;;15.07;65.94;100438.06;4932295;29;20398;-81
2023/04/23 05:01:23;;;;;;;;;;;;;;;15.05;66.23;100445.03;4918854;29;19915;-81
2023/04/23 05:04:15;;;;;;;;;;;;;;;15.19;65.31;100448.13;4919895;29;19915;-81
2023/04/23 05:07:06;;;;;;;;;;;;;;;15.05;65.88;100448.56;4921353;29;19923;-80
2023/04/23 05:09:58;;;;;;;;;;;;;;;15.10;66.08;100453.00;4924089;29;19915;-80
2023/04/23 05:12:50;;;;;;;;;;;;;;;15.13;66.12;100455.03;4930792;29;19915;-81
2023/04/23 05:15:42;;;;;;;;;;;;;;;15.27;65.88;100466.34;4922408;29;19919;-81
2023/04/23 05:18:34;;;;;;;;;;;;;;;15.30;65.10;100466.44;4917529;29;19973;-83
2023/04/23 05:21:25;;;;;;;;;;;;;;;15.40;64.75;100468.66;4926020;29;19915;-82
2023/04/23 05:24:17;;;;;;;;;;;;;;;15.45;64.40;100461.31;4940256;29;19919;-84
2023/04/23 05:27:09;;;;;;;;;;;;;;;15.46;64.43;100455.50;4938231;29;19914;-83
2023/04/23 05:30:01;;;;;;;;;;;;;;;15.43;64.66;100449.94;4943083;29;19919;-83
2023/04/23 05:32:50;;;;;;;;;;;;;;;15.46;64.34;100457.44;4927145;29;19915;-83
2023/04/23 05:35:40;;;;;;;;;;;;;;;15.47;64.21;100451.59;4918462;29;19919;-82
2023/04/23 05:38:32;;;;;;;;;;;;;;;15.51;64.45;100454.41;4918574;29;19915;-82
2023/04/23 05:41:24;;;;;;;;;;;;;;;15.60;64.06;100455.06;4922012;29;19915;-80
2023/04/23 05:44:14;;;;;;;;;;;;;;;15.71;63.15;100448.69;4917860;29;19915;-80
2023/04/23 05:47:06;;;;;;;;;;;;;;;15.74;63.22;100458.16;4917553;29;20382;-81
2023/04/23 05:50:01;;;;;;;;;;;;;;;15.80;63.24;100464.94;4919225;29;19915;-81
2023/04/23 05:52:53;;;;;;;;;;;;;;;15.76;63.32;100473.09;4924833;29;19915;-82
2023/04/23 05:55:45;;;;;;;;;;;;;;;15.78;63.33;100473.53;4917473;29;19918;-83
2023/04/23 05:58:37;;;;;;;;;;;;;;;15.78;63.49;100467.25;4918676;29;19915;-82
2023/04/23 06:01:29;;;;;;;;;;;;;;;15.78;62.83;100465.31;4910935;29;19915;-82
2023/04/23 06:04:21;;;;;;;;;;;;;;;15.89;62.59;100473.78;4919789;29;19918;-82
2023/04/23 06:07:11;;;;;;;;;;;;;;;15.86;61.26;100471.75;4923899;29;19934;-81
2023/04/23 06:10:00;;;;;;;;;;;;;;;15.90;61.38;100467.13;4922374;29;19915;-82
2023/04/23 06:12:52;;;;;;;;;;;;;;;15.92;60.83;100470.31;4917875;29;19915;-82
2023/04/23 06:15:44;;;;;;;;;;;;;;;15.98;61.01;100476.34;4917797;29;20298;-81
2023/04/23 06:18:36;;;;;;;;;;;;;;;16.03;61.23;100465.88;4919126;29;19914;-82
2023/04/23 06:21:26;;;;;;;;;;;;;;;16.12;61.52;100458.25;4918439;29;19915;-81
2023/04/23 06:24:18;;;;;;;;;;;;;;;16.11;61.09;100475.06;4925045;29;19923;-82
2023/04/23 06:27:08;;;;;;;;;;;;;;;16.14;60.67;100469.66;4919055;29;19915;-82
2023/04/23 06:30:01;;;;;;;;;;;;;;;16.22;61.53;100473.34;4917253;29;19915;-81
2023/04/23 06:32:54;;;;;;;;;;;;;;;16.25;61.87;100476.16;4928808;29;19914;-81
2023/04/23 06:35:45;;;;;;;;;;;;;;;16.29;62.32;100479.00;4913711;29;19919;-81
2023/04/23 06:38:37;;;;;;;;;;;;;;;16.30;62.49;100479.78;4917207;29;19919;-81
2023/04/23 06:41:29;;;;;;;;;;;;;;;16.37;62.29;100486.22;4918754;29;19915;-81
2023/04/23 06:44:34;;;;;;;;;;;;;;;16.44;62.23;100477.34;4919141;29;19915;-81
2023/04/23 06:47:26;;;;;;;;;;;;;;;16.49;62.39;100479.81;4915243;29;19915;-81
2023/04/23 06:50:16;;;;;;;;;;;;;;;16.57;62.67;100481.53;4912613;29;19915;-82
2023/04/23 06:53:05;;;;;;;;;;;;;;;16.64;63.00;100478.97;4921775;29;19915;-81
2023/04/23 06:55:57;;;;;;;;;;;;;;;16.69;63.56;100475.94;4919613;29;20389;-81
2023/04/23 06:58:46;;;;;;;;;;;;;;;16.75;62.68;100477.25;4917177;29;20362;-81
2023/04/23 07:01:41;;;;;;;;;;;;;;;16.75;62.73;100480.00;4922084;29;19918;-81
2023/04/23 07:04:33;;;;;;;;;;;;;;;16.75;63.21;100485.47;4930478;29;19915;-84
2023/04/23 07:07:25;;;;;;;;;;;;;;;16.70;62.67;100477.53;4910253;29;19915;-81
2023/04/23 07:10:17;;;;;;;;;;;;;;;16.88;62.17;100486.09;4920762;29;19915;-82
2023/04/23 07:13:09;;;;;;;;;;;;;;;16.91;60.97;100475.22;4918270;29;19914;-84
2023/04/23 07:16:01;;;;;;;;;;;;;;;17.26;60.33;100477.81;4919540;29;20317;-83
2023/04/23 07:18:52;;;;;;;;;;;;;;;17.37;60.09;100478.75;4923164;29;19923;-81
2023/04/23 07:21:44;;;;;;;;;;;;;;;17.56;58.76;100480.66;4917490;29;20373;-79
2023/04/23 07:24:36;;;;;;;;;;;;;;;18.02;59.57;100484.19;4930846;29;20310;-82
2023/04/23 07:27:28;;;;;;;;;;;;;;;17.86;58.34;100478.81;4911517;29;19915;-81
2023/04/23 07:30:17;;;;;;;;;;;;;;;17.95;56.74;100482.09;4916515;29;19914;-81
2023/04/23 07:33:09;;;;;;;;;;;;;;;18.07;56.80;100481.09;4920413;29;19915;-82
2023/04/23 07:36:01;;;;;;;;;;;;;;;17.85;56.34;100481.94;4915688;29;20425;-82
2023/04/23 07:38:53;;;;;;;;;;;;;;;19.66;51.30;100475.84;4919243;29;21873;-80
2023/04/23 07:41:45;;;;;;;;;;;;;;;18.70;53.31;100489.44;4907926;29;19915;-81
2023/04/23 07:44:37;;;;;;;;;;;;;;;18.45;55.14;100473.72;4917516;29;19915;-81
2023/04/23 07:47:26;;;;;;;;;;;;;;;18.17;54.16;100474.16;4922268;29;19914;-81
2023/04/23 07:50:19;;;;;;;;;;;;;;;18.37;55.36;100475.63;4925131;29;19923;-82
2023/04/23 07:53:11;;;;;;;;;;;;;;;22.55;44.83;100472.16;4992258;23;19922;-80
2023/04/23 07:56:03;;;;;;;;;;;;;;;22.63;40.30;100475.69;4931229;29;19919;-77
2023/04/23 07:58:55;;;;;;;;;;;;;;;22.32;42.82;100483.72;4938394;29;19919;-79
2023/04/23 08:01:47;;;;;;;;;;;;;;;22.12;41.63;100486.13;4926614;29;19915;-80
2023/04/23 08:04:36;;;;;;;;;;;;;;;21.29;44.68;100488.50;4919552;29;19915;-76
2023/04/23 08:07:28;;;;;;;;;;;;;;;21.10;44.49;100475.00;4939765;29;20383;-80
2023/04/23 08:10:20;;;;;;;;;;;;;;;20.01;46.33;100484.41;4924333;29;19915;-79
2023/04/23 08:13:10;;;;;;;;;;;;;;;20.17;47.55;100479.34;4918522;29;20287;-79
2023/04/23 08:16:02;;;;;;;;;;;;;;;19.87;48.64;100479.53;4929729;29;19923;-79
2023/04/23 08:18:54;;;;;;;;;;;;;;;19.98;48.99;100480.41;4941165;29;19915;-79
2023/04/23 08:21:46;;;;;;;;;;;;;;;19.87;49.78;100478.75;4924469;29;20390;-78
2023/04/23 08:24:37;;;;;;;;;;;;;;;20.02;48.09;100484.00;4914331;29;20282;-77
2023/04/23 08:27:29;;;;;;;;;;;;;;;20.18;47.90;100478.16;4919911;29;20298;-77
2023/04/23 08:30:21;;;;;;;;;;;;;;;20.08;49.03;100473.38;4915361;29;19915;-77
2023/04/23 08:33:13;;;;;;;;;;;;;;;19.71;48.34;100467.22;4919256;29;19915;-77
2023/04/23 08:36:05;;;;;;;;;;;;;;;21.70;44.23;100464.78;4912560;29;19923;-77
2023/04/23 08:38:55;;;;;;;;;;;;;;;20.45;47.09;100476.78;4911172;29;19923;-76
2023/04/23 08:41:49;;;;;;;;;;;;;;;20.24;47.66;100476.63;4919745;29;19924;-78
2023/04/23 08:44:42;;;;;;;;;;;;;;;20.46;47.65;100472.03;4923276;29;19915;-76
2023/04/23 08:47:34;;;;;;;;;;;;;;;20.47;46.49;100471.63;4917291;29;20297;-78
2023/04/23 08:50:24;;;;;;;;;;;;;;;20.53;46.68;100474.81;4918718;29;19915;-79
2023/04/23 08:53:18;;;;;;;;;;;;;;;20.66;46.87;100476.06;4920021;29;19915;-79
2023/04/23 08:56:10;;;;;;;;;;;;;;;20.84;46.08;100471.38;4919572;29;19919;-78
2023/04/23 08:59:02;;;;;;;;;;;;;;;20.82;45.47;100470.22;4912287;29;19919;-79
2023/04/23 09:01:54;;;;;;;;;;;;;;;20.98;45.61;100462.31;4921149;29;19915;-78
2023/04/23 09:04:47;;;;;;;;;;;;;;;20.85;46.09;100470.22;4920964;29;20016;-78
2023/04/23 09:07:39;;;;;;;;;;;;;;;20.77;46.29;100470.59;4913052;29;20294;-78
2023/04/23 09:10:31;;;;;;;;;;;;;;;21.66;44.32;100465.97;4915443;29;20294;-77
2023/04/23 09:13:23;;;;;;;;;;;;;;;24.11;37.83;100468.28;4908488;29;19915;-77
2023/04/23 09:16:15;;;;;;;;;;;;;;;22.59;41.12;100467.38;4917967;29;19919;-78
2023/04/23 09:19:08;;;;;;;;;;;;;;;21.93;42.80;100463.59;4910184;29;19919;-78
2023/04/23 09:22:00;;;;;;;;;;;;;;;21.72;44.07;100453.34;4921017;29;19919;-78
2023/04/23 09:24:52;;;;;;;;;;;;;;;21.28;44.96;100439.91;4914688;29;19923;-77
2023/04/23 09:27:44;;;;;;;;;;;;;;;21.26;44.80;100445.81;4910126;29;20290;-77
2023/04/23 09:30:39;;;;;;;;;;;;;;;29.74;28.69;100451.06;4905714;29;19915;-76
2023/04/23 09:33:31;;;;;;;;;;;;;;;30.11;27.03;100457.81;4910752;29;19923;-76
2023/04/23 09:36:27;;;;;;;;;;;;;;;33.15;23.62;100446.25;4917785;29;20298;-76
2023/04/23 09:39:19;;;;;;;;;;;;;;;32.02;24.75;100449.44;4917416;29;19915;-76
2023/04/23 09:42:11;;;;;;;;;;;;;;;33.24;23.23;100459.53;4907215;29;19915;-76
2023/04/23 09:45:02;;;;;;;;;;;;;;;31.21;25.14;100455.69;4912842;29;19915;-76
2023/04/23 09:47:55;;;;;;;;;;;;;;;29.55;27.53;100452.13;4926941;29;19915;-77
2023/04/23 09:50:47;;;;;;;;;;;;;;;27.85;30.14;100445.19;4916635;29;19915;-78
2023/04/23 09:53:44;;;;;;;;;;;;;;;25.90;33.91;100439.13;4908487;29;20330;-78
2023/04/23 09:56:34;;;;;;;;;;;;;;;24.85;35.89;100436.00;4914994;29;19919;-78
2023/04/23 09:59:26;;;;;;;;;;;;;;;24.26;37.00;100433.63;4907973;29;20302;-78
2023/04/23 10:02:18;;;;;;;;;;;;;;;23.72;37.66;100433.34;4919924;29;19923;-78
2023/04/23 10:05:16;;;;;;;;;;;;;;;23.24;38.11;100435.31;4916581;29;19915;-77
2023/04/23 10:08:08;;;;;;;;;;;;;;;23.17;38.15;100433.38;4918981;29;19915;-77
2023/04/23 10:11:00;;;;;;;;;;;;;;;22.92;38.46;100436.34;4923197;29;20386;-77
2023/04/23 10:13:51;;;;;;;;;;;;;;;22.79;39.14;100429.69;4916807;29;19915;-77
2023/04/23 10:16:44;;;;;;;;;;;;;;;22.85;39.11;100435.59;4933818;29;19922;-77
2023/04/23 10:19:39;;;;;;;;;;;;;;;22.91;38.93;100429.19;4918028;29;19919;-77
2023/04/23 10:22:34;;;;;;;;;;;;;;;22.88;37.67;100432.00;4925120;29;19915;-77
2023/04/23 10:25:26;;;;;;;;;;;;;;;22.94;39.29;100433.97;4900708;29;20339;-77
2023/04/23 10:28:20;;;;;;;;;;;;;;;22.94;39.57;100425.63;4898292;29;20379;-78
2023/04/23 10:31:12;;;;;;;;;;;;;;;22.98;39.40;100429.16;4921243;29;20535;-77
2023/04/23 10:34:05;;;;;;;;;;;;;;;22.94;39.22;100422.06;4916345;29;19915;-79
2023/04/23 10:36:58;;;;;;;;;;;;;;;23.00;38.71;100414.91;4921390;29;20383;-77
2023/04/23 10:39:51;;;;;;;;;;;;;;;23.02;38.99;100418.84;4920250;29;20005;-77
2023/04/23 10:42:41;;;;;;;;;;;;;;;23.14;39.06;100414.00;4911851;29;20290;-77
2023/04/23 10:45:33;;;;;;;;;;;;;;;23.20;38.59;100406.84;4898301;29;19915;-77
2023/04/23 10:48:25;;;;;;;;;;;;;;;23.17;38.50;100418.72;4897938;29;19916;-77
2023/04/23 10:51:18;;;;;;;;;;;;;;;23.24;38.55;100418.69;4910683;29;19930;-77
2023/04/23 10:54:09;;;;;;;;;;;;;;;23.11;38.83;100415.59;4916635;29;19915;-77
2023/04/23 10:57:02;;;;;;;;;;;;;;;23.22;38.21;100404.41;4916551;29;19923;-77
2023/04/23 10:59:57;;;;;;;;;;;;;;;23.28;38.19;100408.34;4921075;29;19915;-77
2023/04/23 11:02:46;;;;;;;;;;;;;;;23.17;37.34;100404.84;4913417;29;19926;-77
2023/04/23 11:05:38;;;;;;;;;;;;;;;23.22;37.17;100407.19;4911006;29;19915;-77
2023/04/23 11:08:30;;;;;;;;;;;;;;;23.26;37.38;100405.19;4920210;29;19915;-77
2023/04/23 11:11:26;;;;;;;;;;;;;;;23.34;37.59;100398.38;4918791;29;19915;-77
2023/04/23 11:14:18;;;;;;;;;;;;;;;23.41;37.39;100392.78;4911988;29;20318;-77
2023/04/23 11:17:12;;;;;;;;;;;;;;;23.45;36.51;100388.00;4923945;29;19919;-77
2023/04/23 11:20:20;;;;;;;;;;;;;;;23.35;36.60;100386.09;4916587;29;19915;-77
2023/04/23 11:23:29;;;;;;;;;;;;;;;23.36;36.24;100376.56;4919286;29;19914;-77
2023/04/23 11:26:21;;;;;;;;;;;;;;;23.39;36.46;100376.53;4916518;29;19915;-77
2023/04/23 11:29:11;;;;;;;;;;;;;;;23.41;36.55;100373.34;4916906;29;19915;-77
2023/04/23 11:32:00;;;;;;;;;;;;;;;23.55;35.96;100364.91;4918194;29;19915;-77
2023/04/23 11:34:52;;;;;;;;;;;;;;;23.49;35.75;100369.31;4916373;29;20378;-77
2023/04/23 11:37:42;;;;;;;;;;;;;;;23.52;35.87;100354.63;4919557;29;20306;-77
2023/04/23 11:40:33;;;;;;;;;;;;;;;23.54;35.43;100351.44;4918803;29;20386;-77
2023/04/23 11:43:23;;;;;;;;;;;;;;;23.63;34.82;100346.97;4918466;29;19915;-77
2023/04/23 11:46:15;;;;;;;;;;;;;;;23.59;36.40;100337.09;4915996;29;19915;-77
2023/04/23 11:49:07;;;;;;;;;;;;;;;23.45;34.42;100335.28;4916248;29;20298;-77
2023/04/23 11:52:01;;;;;;;;;;;;;;;23.33;35.60;100324.66;4915793;29;19923;-77
2023/04/23 11:54:51;;;;;;;;;;;;;;;23.36;35.73;100327.41;4916867;29;20379;-77
2023/04/23 11:57:46;;;;;;;;;;;;;;;23.32;35.67;100325.84;4896850;29;20387;-77
2023/04/23 12:00:37;;;;;;;;;;;;;;;23.48;35.67;100322.53;4914097;29;19915;-77
2023/04/23 12:03:29;;;;;;;;;;;;;;;23.56;34.98;100321.28;4915194;29;19915;-77
2023/04/23 12:06:21;;;;;;;;;;;;;;;23.43;34.85;100316.22;4915614;29;20386;-77
2023/04/23 12:09:13;;;;;;;;;;;;;;;23.19;34.67;100317.25;4917570;29;20201;-77
2023/04/23 12:12:03;;;;;;;;;;;;;;;23.32;34.51;100314.75;4918804;29;19915;-77
2023/04/23 12:14:52;;;;;;;;;;;;;;;23.37;34.84;100317.06;4917626;29;20294;-77
2023/04/23 12:17:41;;;;;;;;;;;;;;;23.42;34.36;100311.88;4910562;29;20366;-77
2023/04/23 12:20:33;;;;;;;;;;;;;;;23.41;33.53;100301.19;4916682;29;19915;-77
2023/04/23 12:23:31;;;;;;;;;;;;;;;23.48;34.36;100306.69;4917575;29;19914;-77
2023/04/23 12:26:23;;;;;;;;;;;;;;;23.48;34.30;100305.91;4914526;29;19915;-77
2023/04/23 12:29:15;;;;;;;;;;;;;;;23.57;34.67;100298.66;4918770;29;19915;-77
2023/04/23 12:32:04;;;;;;;;;;;;;;;23.58;33.98;100294.69;4912984;29;19915;-77
2023/04/23 12:34:58;;;;;;;;;;;;;;;23.65;33.05;100297.38;4913802;29;19919;-77
2023/04/23 12:37:50;;;;;;;;;;;;;;;23.70;32.56;100293.38;4931510;29;19919;-77
2023/04/23 12:40:42;;;;;;;;;;;;;;;23.62;32.51;100295.41;4925578;29;19915;-77
2023/04/23 12:43:32;;;;;;;;;;;;;;;23.58;32.24;100280.78;4909226;29;19915;-78
2023/04/23 12:46:24;;;;;;;;;;;;;;;23.50;33.26;100279.31;4916633;29;19915;-78
2023/04/23 12:49:16;;;;;;;;;;;;;;;23.55;34.58;100280.84;4917623;29;19914;-77
2023/04/23 12:52:08;;;;;;;;;;;;;;;23.47;34.43;100277.34;4917767;29;19915;-78
2023/04/23 12:55:00;;;;;;;;;;;;;;;23.42;34.51;100277.78;4922007;29;20286;-84
2023/04/23 12:57:51;;;;;;;;;;;;;;;23.26;34.51;100278.31;4922600;29;19923;-84
2023/04/23 13:00:43;;;;;;;;;;;;;;;23.41;34.82;100273.44;4935257;29;19914;-84
2023/04/23 13:03:36;;;;;;;;;;;;;;;23.50;33.38;100264.66;4922320;29;19915;-83
2023/04/23 13:06:28;;;;;;;;;;;;;;;23.54;34.49;100257.84;4942556;29;20318;-84
2023/04/23 13:09:19;;;;;;;;;;;;;;;23.51;34.15;100250.38;4932933;29;19926;-83
2023/04/23 13:12:13;;;;;;;;;;;;;;;23.33;34.09;100249.72;4928471;29;19970;-83
2023/04/23 13:15:05;;;;;;;;;;;;;;;23.25;33.28;100251.00;4926772;29;19915;-83
2023/04/23 13:17:56;;;;;;;;;;;;;;;23.25;33.61;100242.69;4927501;29;19931;-83
2023/04/23 13:20:46;;;;;;;;;;;;;;;23.26;34.82;100242.25;4932012;29;19915;-83
2023/04/23 13:23:38;;;;;;;;;;;;;;;23.35;35.11;100236.22;4930848;29;19914;-83
2023/04/23 13:26:31;;;;;;;;;;;;;;;23.48;35.01;100230.94;4924798;29;19915;-83
2023/04/23 13:29:23;;;;;;;;;;;;;;;23.56;35.19;100230.47;4927756;29;19915;-83
2023/04/23 13:32:15;;;;;;;;;;;;;;;23.66;35.30;100228.75;4937174;29;20382;-83
2023/04/23 13:35:03;;;;;;;;;;;;;;;23.63;35.31;100222.03;4928814;29;20310;-83
2023/04/23 13:37:55;;;;;;;;;;;;;;;23.44;35.78;100228.19;4926077;29;19919;-83
2023/04/23 13:40:47;;;;;;;;;;;;;;;23.20;36.09;100226.50;4926606;29;19915;-83
2023/04/23 13:43:39;;;;;;;;;;;;;;;23.26;35.93;100217.28;4923462;29;20374;-83
2023/04/23 13:46:32;;;;;;;;;;;;;;;23.33;35.52;100217.22;4937229;29;19918;-83
2023/04/23 13:49:24;;;;;;;;;;;;;;;23.41;34.84;100217.94;4929278;29;19915;-83
2023/04/23 13:52:16;;;;;;;;;;;;;;;23.44;34.38;100217.88;4931443;29;19915;-83
2023/04/23 13:55:08;;;;;;;;;;;;;;;23.51;34.48;100217.06;4959856;23;19922;-81
2023/04/23 13:58:00;;;;;;;;;;;;;;;23.48;34.16;100212.31;4953238;28;19922;-82
2023/04/23 14:00:52;;;;;;;;;;;;;;;23.33;33.92;100205.31;4938313;29;19914;-81
2023/04/23 14:03:41;;;;;;;;;;;;;;;23.29;33.63;100204.59;4928940;28;19915;-81
2023/04/23 14:06:33;;;;;;;;;;;;;;;23.16;34.34;100207.09;4910972;29;19915;-81
2023/04/23 14:09:25;;;;;;;;;;;;;;;23.15;34.42;100191.66;4918394;29;19915;-81
2023/04/23 14:12:17;;;;;;;;;;;;;;;23.14;35.21;100194.84;4921582;29;19915;-81
2023/04/23 14:15:07;;;;;;;;;;;;;;;22.88;36.05;100186.00;4917343;29;20299;-82
2023/04/23 14:17:59;;;;;;;;;;;;;;;22.85;35.24;100189.59;4924221;29;19919;-82
2023/04/23 14:20:51;;;;;;;;;;;;;;;22.82;35.81;100187.63;4917667;29;19919;-81
2023/04/23 14:23:51;;;;;;;;;;;;;;;22.89;35.81;100193.13;4917597;29;19915;-81
2023/04/23 14:26:43;;;;;;;;;;;;;;;22.88;36.91;100186.00;4917422;29;19914;-81
2023/04/23 14:29:52;;;;;;;;;;;;;;;22.83;36.81;100182.88;4926397;29;19915;-82
2023/04/23 14:32:41;;;;;;;;;;;;;;;22.75;37.40;100176.63;4925223;29;19915;-81
2023/04/23 14:35:33;;;;;;;;;;;;;;;22.73;37.43;100167.94;4917438;29;19915;-82
2023/04/23 14:38:25;;;;;;;;;;;;;;;22.73;36.54;100172.69;4918723;29;20306;-82
2023/04/23 14:41:17;;;;;;;;;;;;;;;22.80;36.42;100167.88;4915472;29;19941;-81